Time;durP1;ratioP1;P1;durP2;ratioP2;P2;SDS_P1;SDS_P2;PMS_P1;PMS_P2;Temp;Humidity;BMP_temperature;BMP_pressure;BME280_temperature;BME280_humidity;BME280_pressure;Samples;Min_cycle;Max_cycle;Signal;HPM_P1;HPM_P2
2022/09/02 00:01:10;;;;;;;;;;;21.10;42.30;;;;;;452850;261;1268;-50
2022/09/02 00:03:10;;;;;;;;;;;21.10;42.40;;;;;;452461;261;1321;-51
2022/09/02 00:05:12;;;;;;;;;;;21.10;42.50;;;;;;452432;261;1356;-50
2022/09/02 00:07:13;;;;;;;;;;;21.10;42.50;;;;;;452705;261;1349;-51
2022/09/02 00:09:14;;;;;;;;;;;21.10;42.50;;;;;;452833;261;1418;-51
2022/09/02 00:11:16;;;;;;;;;;;21.00;42.50;;;;;;452837;261;1318;-50
2022/09/02 00:13:18;;;;;;;;;;;21.10;42.60;;;;;;452579;261;2186;-50
2022/09/02 00:15:19;;;;;;;;;;;21.10;42.50;;;;;;452842;261;1282;-51
2022/09/02 00:17:20;;;;;;;;;;;21.00;42.40;;;;;;452457;261;1326;-50
2022/09/02 00:19:22;;;;;;;;;;;21.10;42.50;;;;;;452841;261;1298;-50
2022/09/02 00:21:23;;;;;;;;;;;21.10;42.40;;;;;;452444;261;1209;-51
2022/09/02 00:23:24;;;;;;;;;;;21.10;42.40;;;;;;452636;261;1292;-50
2022/09/02 00:25:26;;;;;;;;;;;21.10;42.40;;;;;;452635;261;1305;-50
2022/09/02 00:27:27;;;;;;;;;;;21.10;42.40;;;;;;452857;261;1255;-51
2022/09/02 00:29:28;;;;;;;;;;;21.10;42.40;;;;;;452483;261;1292;-50
2022/09/02 00:31:29;;;;;;;;;;;21.10;42.30;;;;;;452877;261;1114;-50
2022/09/02 00:33:31;;;;;;;;;;;21.10;42.40;;;;;;452872;261;2162;-51
2022/09/02 00:35:32;;;;;;;;;;;21.10;42.30;;;;;;452857;261;1060;-51
2022/09/02 00:37:33;;;;;;;;;;;21.10;42.30;;;;;;452874;261;1144;-51
2022/09/02 00:39:35;;;;;;;;;;;21.10;42.30;;;;;;452512;261;957;-51
2022/09/02 00:41:36;;;;;;;;;;;21.10;42.30;;;;;;452491;261;1124;-50
2022/09/02 00:43:38;;;;;;;;;;;21.10;42.30;;;;;;452875;261;1286;-51
2022/09/02 00:45:39;;;;;;;;;;;21.10;42.30;;;;;;452859;261;1187;-51
2022/09/02 00:47:40;;;;;;;;;;;21.10;42.30;;;;;;452492;261;1048;-50
2022/09/02 00:49:42;;;;;;;;;;;21.10;42.20;;;;;;452868;261;1172;-50
2022/09/02 00:51:43;;;;;;;;;;;21.10;42.30;;;;;;452877;261;1143;-51
2022/09/02 00:53:44;;;;;;;;;;;21.10;42.20;;;;;;452653;261;2209;-51
2022/09/02 00:55:46;;;;;;;;;;;21.10;42.30;;;;;;452876;261;1163;-50
2022/09/02 00:57:47;;;;;;;;;;;21.10;42.30;;;;;;452756;261;1341;-50
2022/09/02 00:59:48;;;;;;;;;;;21.10;42.20;;;;;;452800;261;1220;-50
2022/09/02 01:01:50;;;;;;;;;;;21.10;42.20;;;;;;452429;261;1322;-50
2022/09/02 01:03:51;;;;;;;;;;;21.10;42.20;;;;;;452805;261;1292;-50
2022/09/02 01:05:52;;;;;;;;;;;21.10;42.20;;;;;;452815;261;1311;-51
2022/09/02 01:07:54;;;;;;;;;;;21.00;42.20;;;;;;452459;261;1279;-50
2022/09/02 01:09:55;;;;;;;;;;;21.10;42.20;;;;;;452473;261;1345;-51
2022/09/02 01:11:57;;;;;;;;;;;21.10;42.20;;;;;;452704;261;1357;-50
2022/09/02 01:13:58;;;;;;;;;;;21.10;42.20;;;;;;452437;261;2178;-50
2022/09/02 01:16:00;;;;;;;;;;;21.10;42.10;;;;;;452602;261;1321;-50
2022/09/02 01:18:01;;;;;;;;;;;21.10;42.00;;;;;;452806;261;1358;-50
2022/09/02 01:20:02;;;;;;;;;;;21.10;42.10;;;;;;452792;261;1281;-51
2022/09/02 01:22:04;;;;;;;;;;;21.10;42.10;;;;;;452789;261;1414;-50
2022/09/02 01:24:05;;;;;;;;;;;21.10;42.10;;;;;;452659;261;1321;-51
2022/09/02 01:26:06;;;;;;;;;;;21.10;42.10;;;;;;452815;261;1301;-50
2022/09/02 01:28:08;;;;;;;;;;;21.10;42.10;;;;;;452491;261;1405;-50
2022/09/02 01:30:09;;;;;;;;;;;21.10;42.00;;;;;;452800;261;1298;-50
2022/09/02 01:32:10;;;;;;;;;;;21.10;42.10;;;;;;452419;261;1357;-50
2022/09/02 01:34:12;;;;;;;;;;;21.10;42.20;;;;;;452738;261;2190;-51
2022/09/02 01:36:13;;;;;;;;;;;21.10;42.20;;;;;;452764;261;1307;-50
2022/09/02 01:38:14;;;;;;;;;;;21.10;42.30;;;;;;452429;261;1344;-50
2022/09/02 01:40:16;;;;;;;;;;;21.10;42.30;;;;;;452474;261;1296;-50
2022/09/02 01:42:17;;;;;;;;;;;21.10;42.30;;;;;;452820;261;1272;-50
2022/09/02 01:44:18;;;;;;;;;;;21.10;42.20;;;;;;452841;261;1459;-50
2022/09/02 01:46:20;;;;;;;;;;;21.10;42.10;;;;;;452827;261;1239;-50
2022/09/02 01:48:21;;;;;;;;;;;21.10;42.20;;;;;;452650;261;1473;-50
2022/09/02 01:50:22;;;;;;;;;;;21.10;42.20;;;;;;452515;261;1146;-50
2022/09/02 01:52:24;;;;;;;;;;;21.10;42.20;;;;;;452455;261;1284;-50
2022/09/02 01:54:25;;;;;;;;;;;21.10;42.20;;;;;;452610;261;2182;-50
2022/09/02 01:56:26;;;;;;;;;;;21.10;42.10;;;;;;452425;261;1232;-50
2022/09/02 01:58:28;;;;;;;;;;;21.10;42.10;;;;;;452742;261;1281;-50
2022/09/02 02:00:29;;;;;;;;;;;21.10;42.10;;;;;;452816;261;1315;-50
2022/09/02 02:02:30;;;;;;;;;;;21.10;42.10;;;;;;452824;261;1261;-51
2022/09/02 02:04:32;;;;;;;;;;;21.10;42.20;;;;;;452421;261;1346;-50
2022/09/02 02:06:33;;;;;;;;;;;21.10;42.20;;;;;;452745;261;1346;-50
2022/09/02 02:08:34;;;;;;;;;;;21.10;42.10;;;;;;452812;261;1361;-50
2022/09/02 02:10:36;;;;;;;;;;;21.10;42.10;;;;;;452470;261;1373;-50
2022/09/02 02:12:37;;;;;;;;;;;21.10;42.00;;;;;;452410;261;1303;-51
2022/09/02 02:14:38;;;;;;;;;;;21.10;42.00;;;;;;452435;261;2220;-51
2022/09/02 02:16:40;;;;;;;;;;;21.10;42.00;;;;;;452732;261;1341;-50
2022/09/02 02:18:41;;;;;;;;;;;21.10;42.00;;;;;;452741;261;1319;-51
2022/09/02 02:20:43;;;;;;;;;;;21.10;42.00;;;;;;452636;261;1418;-50
2022/09/02 02:22:44;;;;;;;;;;;21.10;42.00;;;;;;452656;261;1568;-50
2022/09/02 02:24:45;;;;;;;;;;;21.10;42.00;;;;;;452722;261;1268;-50
2022/09/02 02:26:46;;;;;;;;;;;21.10;42.00;;;;;;452873;261;1244;-50
2022/09/02 02:28:48;;;;;;;;;;;21.10;41.90;;;;;;452749;261;1336;-50
2022/09/02 02:30:49;;;;;;;;;;;21.10;41.90;;;;;;452786;261;1163;-50
2022/09/02 02:32:50;;;;;;;;;;;21.10;42.00;;;;;;452507;261;1064;-51
2022/09/02 02:34:53;;;;;;;;;;;21.10;42.00;;;;;;452456;261;2209;-50
2022/09/02 02:36:53;;;;;;;;;;;21.10;41.90;;;;;;452842;261;1517;-50
2022/09/02 02:38:54;;;;;;;;;;;21.10;41.90;;;;;;452887;261;1113;-50
2022/09/02 02:40:56;;;;;;;;;;;21.10;42.00;;;;;;452550;261;1277;-51
2022/09/02 02:42:57;;;;;;;;;;;21.10;42.00;;;;;;452845;261;1287;-51
2022/09/02 02:44:59;;;;;;;;;;;21.10;41.90;;;;;;452874;259;1236;-50
2022/09/02 02:47:00;;;;;;;;;;;21.10;41.90;;;;;;452866;261;1338;-51
2022/09/02 02:49:01;;;;;;;;;;;21.10;42.00;;;;;;452880;261;1317;-50
2022/09/02 02:51:02;;;;;;;;;;;21.10;41.80;;;;;;452823;261;1267;-50
2022/09/02 02:53:04;;;;;;;;;;;21.10;42.00;;;;;;452476;261;1286;-50
2022/09/02 02:55:05;;;;;;;;;;;21.10;41.90;;;;;;452473;261;2177;-50
2022/09/02 02:57:07;;;;;;;;;;;21.10;41.80;;;;;;452549;261;1239;-50
2022/09/02 02:59:08;;;;;;;;;;;21.10;41.90;;;;;;452495;261;1330;-50
2022/09/02 03:01:10;;;;;;;;;;;21.10;41.90;;;;;;452840;261;1346;-50
2022/09/02 03:03:11;;;;;;;;;;;21.10;41.90;;;;;;452460;261;1408;-50
2022/09/02 03:05:12;;;;;;;;;;;21.10;42.00;;;;;;452832;261;1345;-50
2022/09/02 03:07:13;;;;;;;;;;;21.10;42.00;;;;;;452830;261;1421;-50
2022/09/02 03:09:15;;;;;;;;;;;21.10;42.10;;;;;;452416;261;1306;-51
2022/09/02 03:11:16;;;;;;;;;;;21.10;42.00;;;;;;452447;261;1343;-51
2022/09/02 03:13:18;;;;;;;;;;;21.10;42.00;;;;;;452451;261;1339;-51
2022/09/02 03:15:19;;;;;;;;;;;21.10;42.10;;;;;;452812;261;2270;-51
2022/09/02 03:17:21;;;;;;;;;;;21.10;42.00;;;;;;452454;261;1377;-50
2022/09/02 03:19:21;;;;;;;;;;;21.10;42.00;;;;;;452439;261;2522;-50
2022/09/02 03:21:23;;;;;;;;;;;21.10;41.90;;;;;;452808;261;1265;-50
2022/09/02 03:23:24;;;;;;;;;;;21.10;41.90;;;;;;452450;261;1721;-50
2022/09/02 03:25:25;;;;;;;;;;;21.10;41.90;;;;;;452730;261;1343;-50
2022/09/02 03:27:27;;;;;;;;;;;21.10;41.90;;;;;;452486;261;1323;-50
2022/09/02 03:29:28;;;;;;;;;;;21.10;42.00;;;;;;452863;261;1285;-51
2022/09/02 03:31:29;;;;;;;;;;;21.10;41.90;;;;;;452851;261;1331;-50
2022/09/02 03:33:31;;;;;;;;;;;21.10;41.90;;;;;;452720;261;1264;-50
2022/09/02 03:35:32;;;;;;;;;;;21.10;41.90;;;;;;452839;261;2173;-50
2022/09/02 03:37:33;;;;;;;;;;;21.10;42.10;;;;;;452552;261;1225;-50
2022/09/02 03:39:35;;;;;;;;;;;21.10;42.30;;;;;;452476;261;1292;-51
2022/09/02 03:41:36;;;;;;;;;;;21.10;42.50;;;;;;452559;261;1286;-51
2022/09/02 03:43:37;;;;;;;;;;;21.10;42.60;;;;;;452563;261;1222;-51
2022/09/02 03:45:40;;;;;;;;;;;21.00;42.70;;;;;;452718;261;1358;-50
2022/09/02 03:47:46;;;;;;;;;;;21.00;42.70;;;;;;452487;261;2493;-50
2022/09/02 03:49:42;;;;;;;;;;;21.00;42.90;;;;;;452843;261;2358;-51
2022/09/02 03:51:43;;;;;;;;;;;21.10;43.00;;;;;;452825;261;1204;-51
2022/09/02 03:53:45;;;;;;;;;;;21.10;43.00;;;;;;452826;261;1181;-50
2022/09/02 03:55:46;;;;;;;;;;;21.00;43.00;;;;;;452406;261;2241;-50
2022/09/02 03:57:47;;;;;;;;;;;21.00;43.00;;;;;;452677;261;1051;-50
2022/09/02 03:59:49;;;;;;;;;;;21.10;43.10;;;;;;452852;261;1112;-50
2022/09/02 04:01:50;;;;;;;;;;;21.00;43.10;;;;;;452851;261;1241;-50
2022/09/02 04:03:51;;;;;;;;;;;21.00;43.20;;;;;;452479;261;1274;-50
2022/09/02 04:05:53;;;;;;;;;;;21.00;43.10;;;;;;452832;261;1226;-50
2022/09/02 04:07:55;;;;;;;;;;;21.00;43.20;;;;;;452451;261;1266;-50
2022/09/02 04:09:55;;;;;;;;;;;21.00;43.30;;;;;;452835;261;2285;-50
2022/09/02 04:11:57;;;;;;;;;;;21.00;43.30;;;;;;452501;261;1259;-50
2022/09/02 04:13:58;;;;;;;;;;;21.00;43.40;;;;;;452861;261;1295;-50
2022/09/02 04:15:59;;;;;;;;;;;21.00;43.40;;;;;;452801;261;2228;-50
2022/09/02 04:18:01;;;;;;;;;;;21.00;43.40;;;;;;452823;261;1266;-51
2022/09/02 04:20:02;;;;;;;;;;;21.00;43.50;;;;;;452541;261;1271;-51
2022/09/02 04:22:03;;;;;;;;;;;21.00;43.50;;;;;;452403;261;1294;-50
2022/09/02 04:24:05;;;;;;;;;;;21.00;43.50;;;;;;452730;261;1287;-51
2022/09/02 04:26:06;;;;;;;;;;;21.00;43.60;;;;;;452727;261;1232;-50
2022/09/02 04:28:07;;;;;;;;;;;21.00;43.70;;;;;;452446;261;1319;-50
2022/09/02 04:30:09;;;;;;;;;;;21.00;43.70;;;;;;452428;261;1344;-51
2022/09/02 04:32:10;;;;;;;;;;;21.00;43.70;;;;;;452786;261;1260;-50
2022/09/02 04:34:11;;;;;;;;;;;21.00;43.70;;;;;;452496;261;1319;-50
2022/09/02 04:36:13;;;;;;;;;;;21.00;43.70;;;;;;452783;261;2134;-50
2022/09/02 04:38:14;;;;;;;;;;;21.00;43.70;;;;;;452381;261;1405;-50
2022/09/02 04:40:15;;;;;;;;;;;21.00;43.70;;;;;;452422;261;1313;-50
2022/09/02 04:42:17;;;;;;;;;;;21.00;43.80;;;;;;452547;261;1276;-51
2022/09/02 04:44:18;;;;;;;;;;;21.00;43.90;;;;;;452850;261;1232;-51
2022/09/02 04:46:19;;;;;;;;;;;21.00;43.90;;;;;;452819;261;1275;-50
2022/09/02 04:48:22;;;;;;;;;;;21.00;43.90;;;;;;452433;261;1317;-50
2022/09/02 04:50:22;;;;;;;;;;;21.00;43.90;;;;;;452849;261;1416;-50
2022/09/02 04:52:23;;;;;;;;;;;21.00;43.90;;;;;;452544;261;1309;-50
2022/09/02 04:54:25;;;;;;;;;;;21.00;44.00;;;;;;452843;261;1284;-51
2022/09/02 04:56:26;;;;;;;;;;;21.00;44.00;;;;;;452764;261;2137;-51
2022/09/02 04:58:27;;;;;;;;;;;21.00;44.00;;;;;;452440;261;1384;-51
2022/09/02 05:00:29;;;;;;;;;;;21.00;44.00;;;;;;452573;261;1233;-50
2022/09/02 05:02:30;;;;;;;;;;;21.00;44.10;;;;;;452499;261;1324;-50
2022/09/02 05:04:32;;;;;;;;;;;21.00;44.10;;;;;;452490;261;1234;-50
2022/09/02 05:06:32;;;;;;;;;;;21.00;44.10;;;;;;452595;261;1379;-50
2022/09/02 05:08:35;;;;;;;;;;;21.00;44.10;;;;;;452397;261;1343;-50
2022/09/02 05:10:37;;;;;;;;;;;21.00;44.20;;;;;;452432;261;1288;-50
2022/09/02 05:12:39;;;;;;;;;;;21.00;44.20;;;;;;452562;261;1611;-50
2022/09/02 05:14:39;;;;;;;;;;;21.00;44.30;;;;;;452463;261;2449;-51
2022/09/02 05:16:41;;;;;;;;;;;21.00;44.30;;;;;;452812;261;2166;-50
2022/09/02 05:18:42;;;;;;;;;;;21.00;44.30;;;;;;452439;261;2202;-50
2022/09/02 05:20:43;;;;;;;;;;;21.00;44.30;;;;;;452754;261;1314;-50
2022/09/02 05:22:45;;;;;;;;;;;21.00;44.30;;;;;;452647;261;1314;-50
2022/09/02 05:24:46;;;;;;;;;;;21.00;44.30;;;;;;452612;261;1565;-50
2022/09/02 05:26:48;;;;;;;;;;;21.00;44.30;;;;;;452743;261;1405;-51
2022/09/02 05:28:48;;;;;;;;;;;21.00;44.40;;;;;;452654;261;1588;-51
2022/09/02 05:30:49;;;;;;;;;;;20.90;44.40;;;;;;452397;261;1293;-50
2022/09/02 05:32:51;;;;;;;;;;;21.00;44.40;;;;;;452617;261;1264;-50
2022/09/02 05:34:52;;;;;;;;;;;21.00;44.40;;;;;;452735;261;2403;-50
2022/09/02 05:36:54;;;;;;;;;;;21.00;44.40;;;;;;452447;261;1231;-50
2022/09/02 05:38:55;;;;;;;;;;;21.00;44.40;;;;;;452699;261;1255;-50
2022/09/02 05:40:56;;;;;;;;;;;21.00;44.50;;;;;;452824;261;1378;-50
2022/09/02 05:42:58;;;;;;;;;;;21.00;44.50;;;;;;452046;261;1296;-50
2022/09/02 05:44:59;;;;;;;;;;;21.00;44.50;;;;;;452121;261;1343;-50
2022/09/02 05:47:00;;;;;;;;;;;21.00;44.50;;;;;;452453;261;1250;-51
2022/09/02 05:49:08;;;;;;;;;;;21.00;44.50;;;;;;452629;261;1240;-51
2022/09/02 05:51:09;;;;;;;;;;;21.00;44.50;;;;;;452257;261;1279;-49
2022/09/02 05:53:10;;;;;;;;;;;21.00;44.50;;;;;;452189;261;1211;-50
2022/09/02 05:55:12;;;;;;;;;;;21.00;44.60;;;;;;452313;261;2225;-50
2022/09/02 05:57:13;;;;;;;;;;;21.00;44.60;;;;;;452232;261;1274;-50
2022/09/02 05:59:15;;;;;;;;;;;21.00;44.60;;;;;;452197;261;1323;-50
2022/09/02 06:01:16;;;;;;;;;;;21.00;44.70;;;;;;452127;261;1370;-50
2022/09/02 06:03:19;;;;;;;;;;;21.00;44.70;;;;;;452534;261;1309;-50
2022/09/02 06:05:19;;;;;;;;;;;21.00;44.70;;;;;;452147;261;2093;-50
2022/09/02 06:07:20;;;;;;;;;;;21.00;44.70;;;;;;452079;261;1220;-50
2022/09/02 06:09:21;;;;;;;;;;;21.00;44.60;;;;;;452637;261;1382;-50
2022/09/02 06:11:23;;;;;;;;;;;21.00;44.70;;;;;;452361;261;1246;-51
2022/09/02 06:13:24;;;;;;;;;;;21.00;44.70;;;;;;452340;261;1357;-50
2022/09/02 06:15:27;;;;;;;;;;;21.00;44.80;;;;;;452311;261;2221;-50
2022/09/02 06:17:28;;;;;;;;;;;21.00;44.80;;;;;;452150;261;1260;-50
2022/09/02 06:19:31;;;;;;;;;;;21.00;44.80;;;;;;452104;261;1597;-50
2022/09/02 06:21:31;;;;;;;;;;;21.00;44.90;;;;;;452114;261;2542;-50
2022/09/02 06:23:32;;;;;;;;;;;21.00;44.90;;;;;;452310;261;1302;-51
2022/09/02 06:25:33;;;;;;;;;;;21.00;44.90;;;;;;452093;261;1254;-50
2022/09/02 06:27:35;;;;;;;;;;;21.00;45.00;;;;;;452169;261;1228;-50
2022/09/02 06:29:36;;;;;;;;;;;21.00;45.00;;;;;;451987;261;1222;-50
2022/09/02 06:31:38;;;;;;;;;;;21.00;44.90;;;;;;452030;261;1239;-50
2022/09/02 06:33:39;;;;;;;;;;;21.00;45.00;;;;;;452119;261;1271;-50
2022/09/02 06:35:40;;;;;;;;;;;21.00;45.00;;;;;;452603;261;2220;-51
2022/09/02 06:37:42;;;;;;;;;;;21.00;45.10;;;;;;452202;261;1263;-50
2022/09/02 06:39:45;;;;;;;;;;;21.00;45.10;;;;;;452077;261;2446;-50
2022/09/02 06:41:45;;;;;;;;;;;21.00;45.10;;;;;;452343;261;1560;-51
2022/09/02 06:43:46;;;;;;;;;;;21.00;45.10;;;;;;452167;261;1870;-51
2022/09/02 06:45:47;;;;;;;;;;;21.00;45.10;;;;;;451939;261;1249;-50
2022/09/02 06:47:48;;;;;;;;;;;21.00;45.20;;;;;;452132;261;1327;-51
2022/09/02 06:49:50;;;;;;;;;;;21.00;45.20;;;;;;452365;261;1197;-50
2022/09/02 06:51:51;;;;;;;;;;;21.00;45.20;;;;;;452059;261;1144;-50
2022/09/02 06:53:52;;;;;;;;;;;21.00;45.20;;;;;;452024;261;1243;-50
2022/09/02 06:55:54;;;;;;;;;;;21.00;45.20;;;;;;451962;261;2217;-50
2022/09/02 06:57:55;;;;;;;;;;;21.00;45.30;;;;;;451937;261;1230;-50
2022/09/02 06:59:56;;;;;;;;;;;21.00;45.30;;;;;;452145;261;1278;-50
2022/09/02 07:01:58;;;;;;;;;;;21.00;45.30;;;;;;452227;261;1234;-50
2022/09/02 07:06:18;;;;;;;;;;;21.00;45.40;;;;;;451656;263;1293;-50
2022/09/02 07:08:20;;;;;;;;;;;21.00;45.40;;;;;;451620;261;1271;-51
2022/09/02 07:10:22;;;;;;;;;;;21.00;45.40;;;;;;451677;261;1370;-50
2022/09/02 07:12:25;;;;;;;;;;;21.00;45.40;;;;;;451913;261;2194;-50
2022/09/02 07:14:26;;;;;;;;;;;21.00;45.30;;;;;;451947;261;1895;-50
2022/09/02 07:16:25;;;;;;;;;;;21.00;45.20;;;;;;452009;261;2225;-50
2022/09/02 07:18:26;;;;;;;;;;;21.00;45.10;;;;;;451942;261;1207;-50
2022/09/02 07:20:28;;;;;;;;;;;21.00;45.10;;;;;;452137;261;1243;-50
2022/09/02 07:22:29;;;;;;;;;;;21.00;45.00;;;;;;452015;261;1164;-50
2022/09/02 07:24:30;;;;;;;;;;;21.00;45.00;;;;;;451874;261;1237;-50
2022/09/02 07:26:32;;;;;;;;;;;21.00;45.10;;;;;;452101;261;1234;-50
2022/09/02 07:28:33;;;;;;;;;;;21.00;45.10;;;;;;451914;261;1393;-50
2022/09/02 07:30:34;;;;;;;;;;;21.00;45.10;;;;;;452005;261;1255;-50
2022/09/02 07:32:36;;;;;;;;;;;21.00;45.00;;;;;;451998;261;1417;-50
2022/09/02 07:34:37;;;;;;;;;;;21.00;45.00;;;;;;452014;261;1285;-51
2022/09/02 07:36:39;;;;;;;;;;;21.00;44.90;;;;;;452092;261;2225;-50
2022/09/02 07:38:40;;;;;;;;;;;21.00;44.90;;;;;;452111;261;1319;-51
2022/09/02 07:40:41;;;;;;;;;;;21.00;44.80;;;;;;451822;261;1722;-50
2022/09/02 07:42:42;;;;;;;;;;;21.00;44.70;;;;;;451886;261;1342;-50
2022/09/02 07:44:44;;;;;;;;;;;21.00;44.70;;;;;;451826;261;1249;-50
2022/09/02 07:46:45;;;;;;;;;;;21.00;44.70;;;;;;451962;261;1276;-50
2022/09/02 07:48:48;;;;;;;;;;;21.00;44.70;;;;;;451963;261;1246;-50
2022/09/02 07:50:48;;;;;;;;;;;21.00;44.70;;;;;;452120;261;2054;-51
2022/09/02 07:52:49;;;;;;;;;;;21.00;44.60;;;;;;451883;261;1195;-50
2022/09/02 07:54:51;;;;;;;;;;;21.00;44.60;;;;;;452073;261;1250;-50
2022/09/02 07:56:52;;;;;;;;;;;21.00;44.60;;;;;;451957;261;2197;-50
2022/09/02 07:58:53;;;;;;;;;;;21.00;44.50;;;;;;452007;261;1686;-50
2022/09/02 08:00:55;;;;;;;;;;;21.00;44.50;;;;;;452170;261;1258;-51
2022/09/02 08:02:56;;;;;;;;;;;21.00;44.50;;;;;;452013;261;1453;-50
2022/09/02 08:04:58;;;;;;;;;;;21.00;44.40;;;;;;452081;260;1897;-50
2022/09/02 08:06:59;;;;;;;;;;;21.00;44.50;;;;;;452043;261;1336;-50
2022/09/02 08:09:01;;;;;;;;;;;21.00;44.30;;;;;;451964;261;1652;-50
2022/09/02 08:11:02;;;;;;;;;;;21.00;44.30;;;;;;452105;261;1278;-50
2022/09/02 08:13:04;;;;;;;;;;;21.10;44.30;;;;;;452154;261;1223;-50
2022/09/02 08:15:05;;;;;;;;;;;21.00;44.30;;;;;;452208;261;1603;-50
2022/09/02 08:17:07;;;;;;;;;;;21.00;44.30;;;;;;452215;261;2181;-50
2022/09/02 08:19:08;;;;;;;;;;;21.00;44.20;;;;;;452081;261;1333;-50
2022/09/02 08:21:09;;;;;;;;;;;21.00;44.20;;;;;;452305;261;1612;-51
2022/09/02 08:23:11;;;;;;;;;;;21.00;44.20;;;;;;451914;261;1235;-50
2022/09/02 08:25:12;;;;;;;;;;;21.00;44.30;;;;;;451903;261;1451;-50
2022/09/02 08:27:13;;;;;;;;;;;21.00;44.20;;;;;;451885;261;1431;-50
2022/09/02 08:29:15;;;;;;;;;;;21.00;44.10;;;;;;451929;261;1333;-50
2022/09/02 08:31:17;;;;;;;;;;;21.10;44.10;;;;;;451879;261;1336;-50
2022/09/02 08:33:17;;;;;;;;;;;21.00;44.20;;;;;;451887;261;1531;-50
2022/09/02 08:35:19;;;;;;;;;;;21.00;44.10;;;;;;451940;261;1238;-51
2022/09/02 08:37:20;;;;;;;;;;;21.00;44.10;;;;;;451912;261;2228;-50
2022/09/02 08:39:21;;;;;;;;;;;21.00;44.10;;;;;;451747;261;1289;-50
2022/09/02 08:41:23;;;;;;;;;;;21.00;44.00;;;;;;451936;261;1229;-51
2022/09/02 08:43:24;;;;;;;;;;;21.00;44.00;;;;;;451834;261;1366;-51
2022/09/02 08:45:25;;;;;;;;;;;21.00;44.00;;;;;;451805;261;1559;-50
2022/09/02 08:47:28;;;;;;;;;;;21.00;44.00;;;;;;452067;261;1314;-51
2022/09/02 08:49:28;;;;;;;;;;;21.00;44.00;;;;;;451783;261;2233;-50
2022/09/02 08:51:29;;;;;;;;;;;21.00;44.00;;;;;;452073;261;1084;-49
2022/09/02 08:53:31;;;;;;;;;;;21.00;43.90;;;;;;452081;261;1211;-50
2022/09/02 08:55:32;;;;;;;;;;;21.00;43.90;;;;;;452074;261;1092;-50
2022/09/02 08:57:33;;;;;;;;;;;21.00;43.90;;;;;;452184;261;2221;-51
2022/09/02 08:59:35;;;;;;;;;;;21.10;43.90;;;;;;452186;261;1170;-50
2022/09/02 09:01:36;;;;;;;;;;;21.00;43.90;;;;;;451922;261;1230;-51
2022/09/02 09:03:37;;;;;;;;;;;21.10;44.00;;;;;;452013;261;1119;-51
2022/09/02 09:05:39;;;;;;;;;;;21.00;43.90;;;;;;452085;261;1122;-50
2022/09/02 09:07:40;;;;;;;;;;;21.10;43.90;;;;;;451960;261;1207;-50
2022/09/02 09:09:41;;;;;;;;;;;21.00;43.70;;;;;;451946;261;1305;-51
2022/09/02 09:11:43;;;;;;;;;;;21.00;43.60;;;;;;451951;261;1089;-50
2022/09/02 09:13:44;;;;;;;;;;;21.00;43.80;;;;;;452036;261;1209;-51
2022/09/02 09:15:46;;;;;;;;;;;21.00;43.80;;;;;;451901;261;1202;-50
2022/09/02 09:17:47;;;;;;;;;;;21.00;43.70;;;;;;451844;261;2214;-50
2022/09/02 09:19:48;;;;;;;;;;;21.00;43.70;;;;;;451903;261;1282;-50
2022/09/02 09:21:50;;;;;;;;;;;21.00;43.70;;;;;;451889;261;1326;-50
2022/09/02 09:23:52;;;;;;;;;;;21.00;43.70;;;;;;451914;261;1173;-50
2022/09/02 09:25:52;;;;;;;;;;;21.00;43.60;;;;;;451892;261;1967;-51
2022/09/02 09:27:54;;;;;;;;;;;21.00;43.60;;;;;;451896;261;1324;-50
2022/09/02 09:29:55;;;;;;;;;;;21.00;43.50;;;;;;451888;261;1252;-50
2022/09/02 09:31:56;;;;;;;;;;;21.00;43.50;;;;;;451868;261;1238;-50
2022/09/02 09:33:58;;;;;;;;;;;21.00;43.60;;;;;;452147;261;1214;-50
2022/09/02 09:36:01;;;;;;;;;;;21.00;43.50;;;;;;452218;261;1328;-50
2022/09/02 09:38:00;;;;;;;;;;;21.00;43.50;;;;;;451952;261;2212;-50
2022/09/02 09:40:02;;;;;;;;;;;21.00;43.50;;;;;;451922;261;1294;-51
2022/09/02 09:42:03;;;;;;;;;;;21.00;43.50;;;;;;451919;261;1427;-50
2022/09/02 09:44:04;;;;;;;;;;;21.00;43.40;;;;;;452217;261;1181;-50
2022/09/02 09:46:06;;;;;;;;;;;21.00;43.60;;;;;;452143;261;1568;-50
2022/09/02 09:48:07;;;;;;;;;;;21.00;43.50;;;;;;452092;261;1261;-50
2022/09/02 09:50:08;;;;;;;;;;;21.00;43.50;;;;;;451787;261;1196;-50
2022/09/02 09:52:10;;;;;;;;;;;21.00;43.40;;;;;;451924;261;1261;-50
2022/09/02 09:54:11;;;;;;;;;;;21.00;43.50;;;;;;452003;261;1290;-50
2022/09/02 09:56:12;;;;;;;;;;;21.00;43.30;;;;;;451851;261;1260;-50
2022/09/02 09:58:14;;;;;;;;;;;21.00;43.30;;;;;;451959;261;2147;-50
2022/09/02 10:00:16;;;;;;;;;;;21.00;43.30;;;;;;451879;261;1175;-51
2022/09/02 10:02:16;;;;;;;;;;;21.00;43.20;;;;;;452002;261;2235;-50
2022/09/02 10:04:18;;;;;;;;;;;21.00;43.30;;;;;;452506;261;1242;-50
2022/09/02 10:06:19;;;;;;;;;;;21.00;43.20;;;;;;452187;261;1201;-50
2022/09/02 10:08:21;;;;;;;;;;;21.00;43.20;;;;;;452281;261;1223;-50
2022/09/02 10:10:22;;;;;;;;;;;21.10;43.20;;;;;;452350;261;1307;-50
2022/09/02 10:12:23;;;;;;;;;;;21.00;43.10;;;;;;452127;261;1224;-50
2022/09/02 10:14:25;;;;;;;;;;;21.00;43.10;;;;;;452326;261;1287;-50
2022/09/02 10:16:26;;;;;;;;;;;21.00;43.10;;;;;;452168;261;1209;-49
2022/09/02 10:18:27;;;;;;;;;;;21.00;43.00;;;;;;452061;261;2201;-50
2022/09/02 10:20:29;;;;;;;;;;;21.10;43.00;;;;;;452100;261;1328;-50
2022/09/02 10:22:30;;;;;;;;;;;21.10;43.00;;;;;;452230;261;1339;-50
2022/09/02 10:24:31;;;;;;;;;;;21.00;43.00;;;;;;452209;261;1667;-50
2022/09/02 10:26:33;;;;;;;;;;;21.00;42.90;;;;;;452552;261;1216;-49
2022/09/02 10:28:34;;;;;;;;;;;21.00;43.00;;;;;;452343;261;1275;-50
2022/09/02 10:30:35;;;;;;;;;;;21.10;43.00;;;;;;452391;261;1267;-51
2022/09/02 10:32:37;;;;;;;;;;;21.00;42.90;;;;;;452186;261;1284;-51
2022/09/02 10:34:38;;;;;;;;;;;21.00;43.00;;;;;;452189;261;1310;-49
2022/09/02 10:36:39;;;;;;;;;;;21.10;43.00;;;;;;452172;261;2080;-50
2022/09/02 10:38:41;;;;;;;;;;;21.00;42.90;;;;;;452594;261;1216;-50
2022/09/02 10:40:42;;;;;;;;;;;21.00;42.90;;;;;;452375;261;1262;-51
2022/09/02 10:42:43;;;;;;;;;;;21.10;42.90;;;;;;452371;261;1997;-50
2022/09/02 10:44:44;;;;;;;;;;;21.00;42.80;;;;;;452353;261;1266;-50
2022/09/02 10:46:46;;;;;;;;;;;21.00;42.80;;;;;;452266;261;1386;-50
2022/09/02 10:48:47;;;;;;;;;;;21.00;42.90;;;;;;452490;261;1245;-51
2022/09/02 10:50:49;;;;;;;;;;;21.00;42.80;;;;;;452148;261;1220;-51
2022/09/02 10:52:50;;;;;;;;;;;21.00;42.80;;;;;;452236;261;1263;-50
2022/09/02 10:54:51;;;;;;;;;;;21.10;42.70;;;;;;452202;261;1240;-50
2022/09/02 10:56:53;;;;;;;;;;;21.00;42.80;;;;;;452327;261;2170;-50
2022/09/02 10:58:54;;;;;;;;;;;21.00;42.90;;;;;;452214;261;1272;-50
2022/09/02 11:00:55;;;;;;;;;;;21.00;43.00;;;;;;452306;261;1544;-51
2022/09/02 11:02:57;;;;;;;;;;;21.00;43.00;;;;;;452197;261;1248;-51
2022/09/02 11:04:58;;;;;;;;;;;21.10;43.00;;;;;;452562;261;1226;-50
2022/09/02 11:06:59;;;;;;;;;;;21.00;42.90;;;;;;452606;261;1281;-51
2022/09/02 11:09:01;;;;;;;;;;;21.00;42.90;;;;;;452269;261;1239;-50
2022/09/02 11:11:03;;;;;;;;;;;21.00;42.90;;;;;;451881;261;1248;-50
2022/09/02 11:13:03;;;;;;;;;;;21.00;42.80;;;;;;451409;261;1620;-49
2022/09/02 11:15:05;;;;;;;;;;;21.00;42.80;;;;;;452180;261;1188;-50
2022/09/02 11:17:06;;;;;;;;;;;21.00;42.70;;;;;;452034;261;2190;-51
2022/09/02 11:19:07;;;;;;;;;;;21.00;42.70;;;;;;452606;261;1331;-51
2022/09/02 11:21:09;;;;;;;;;;;21.00;42.70;;;;;;452605;261;1217;-50
2022/09/02 11:23:11;;;;;;;;;;;21.00;42.70;;;;;;452359;261;1257;-50
2022/09/02 11:25:11;;;;;;;;;;;21.00;42.60;;;;;;452288;261;1992;-50
2022/09/02 11:27:13;;;;;;;;;;;21.00;42.60;;;;;;452222;261;1324;-50
2022/09/02 11:29:14;;;;;;;;;;;21.00;42.70;;;;;;452441;261;1295;-50
2022/09/02 11:31:15;;;;;;;;;;;21.00;42.70;;;;;;452289;261;1339;-50
2022/09/02 11:33:17;;;;;;;;;;;21.00;42.60;;;;;;452205;261;1243;-50
2022/09/02 11:35:18;;;;;;;;;;;21.00;42.70;;;;;;452589;261;1200;-50
2022/09/02 11:37:19;;;;;;;;;;;21.00;42.60;;;;;;452251;261;2176;-50
2022/09/02 11:39:20;;;;;;;;;;;21.10;42.50;;;;;;452369;261;1253;-50
2022/09/02 11:41:22;;;;;;;;;;;21.00;42.50;;;;;;452177;261;1260;-50
2022/09/02 11:43:23;;;;;;;;;;;21.00;42.50;;;;;;452353;261;1453;-51
2022/09/02 11:45:24;;;;;;;;;;;21.00;42.50;;;;;;452233;261;1341;-50
2022/09/02 11:47:26;;;;;;;;;;;21.00;42.50;;;;;;452284;261;1302;-50
2022/09/02 11:49:28;;;;;;;;;;;21.00;42.50;;;;;;452299;261;1310;-50
2022/09/02 11:51:29;;;;;;;;;;;21.00;42.40;;;;;;452417;261;1896;-50
2022/09/02 11:53:30;;;;;;;;;;;21.00;42.40;;;;;;452422;261;1317;-51
2022/09/02 11:55:31;;;;;;;;;;;21.10;42.50;;;;;;452288;261;1259;-50
2022/09/02 11:57:33;;;;;;;;;;;21.00;42.40;;;;;;452307;261;2225;-50
2022/09/02 11:59:34;;;;;;;;;;;21.00;42.40;;;;;;452321;261;1243;-51